sensor_id;sensor_type;location;lat;lon;timestamp;temperature;humidity
5560;DHT22;2803;47.916;8.074;2023-11-21T00:01:02;10.60;99.90
5560;DHT22;2803;47.916;8.074;2023-11-21T00:03:31;11.00;99.90
5560;DHT22;2803;47.916;8.074;2023-11-21T00:05:57;11.10;99.90
5560;DHT22;2803;47.916;8.074;2023-11-21T00:08:24;11.30;99.90
5560;DHT22;2803;47.916;8.074;2023-11-21T00:10:50;11.40;99.90
5560;DHT22;2803;47.916;8.074;2023-11-21T00:13:17;11.20;99.90
5560;DHT22;2803;47.916;8.074;2023-11-21T00:15:44;11.20;99.90
5560;DHT22;2803;47.916;8.074;2023-11-21T00:18:10;11.30;99.90
5560;DHT22;2803;47.916;8.074;2023-11-21T00:20:38;11.20;99.90
5560;DHT22;2803;47.916;8.074;2023-11-21T00:23:05;11.20;99.90
5560;DHT22;2803;47.916;8.074;2023-11-21T00:25:32;11.30;99.90
5560;DHT22;2803;47.916;8.074;2023-11-21T00:27:58;11.10;99.90
5560;DHT22;2803;47.916;8.074;2023-11-21T00:30:27;11.00;99.90
5560;DHT22;2803;47.916;8.074;2023-11-21T00:32:54;11.00;99.90
5560;DHT22;2803;47.916;8.074;2023-11-21T00:35:20;10.70;99.90
5560;DHT22;2803;47.916;8.074;2023-11-21T00:37:48;10.50;99.90
5560;DHT22;2803;47.916;8.074;2023-11-21T00:40:15;10.70;99.90
5560;DHT22;2803;47.916;8.074;2023-11-21T00:42:44;10.70;99.90
5560;DHT22;2803;47.916;8.074;2023-11-21T00:45:11;10.90;99.90
5560;DHT22;2803;47.916;8.074;2023-11-21T00:47:38;11.00;99.90
5560;DHT22;2803;47.916;8.074;2023-11-21T00:50:05;10.70;99.90
5560;DHT22;2803;47.916;8.074;2023-11-21T00:52:32;10.70;99.90
5560;DHT22;2803;47.916;8.074;2023-11-21T00:55:00;10.50;99.90
5560;DHT22;2803;47.916;8.074;2023-11-21T00:57:28;10.70;99.90
5560;DHT22;2803;47.916;8.074;2023-11-21T00:59:55;10.80;99.90
5560;DHT22;2803;47.916;8.074;2023-11-21T01:02:21;10.70;99.90
5560;DHT22;2803;47.916;8.074;2023-11-21T01:04:48;10.90;99.90
5560;DHT22;2803;47.916;8.074;2023-11-21T01:07:14;10.90;99.90
5560;DHT22;2803;47.916;8.074;2023-11-21T01:09:41;11.00;99.90
5560;DHT22;2803;47.916;8.074;2023-11-21T01:12:10;11.00;99.90
5560;DHT22;2803;47.916;8.074;2023-11-21T01:14:37;10.90;99.90
5560;DHT22;2803;47.916;8.074;2023-11-21T01:17:04;10.90;99.90
5560;DHT22;2803;47.916;8.074;2023-11-21T01:19:31;11.10;99.90
5560;DHT22;2803;47.916;8.074;2023-11-21T01:21:58;11.00;99.90
5560;DHT22;2803;47.916;8.074;2023-11-21T01:24:24;11.00;99.90
5560;DHT22;2803;47.916;8.074;2023-11-21T01:26:51;11.10;99.90
5560;DHT22;2803;47.916;8.074;2023-11-21T01:29:19;11.10;99.90
5560;DHT22;2803;47.916;8.074;2023-11-21T01:31:45;11.00;99.90
5560;DHT22;2803;47.916;8.074;2023-11-21T01:34:12;11.00;99.90
5560;DHT22;2803;47.916;8.074;2023-11-21T01:36:39;10.70;99.90
5560;DHT22;2803;47.916;8.074;2023-11-21T01:39:06;10.30;99.90
5560;DHT22;2803;47.916;8.074;2023-11-21T01:41:34;10.40;99.90
5560;DHT22;2803;47.916;8.074;2023-11-21T01:44:01;10.70;99.90
5560;DHT22;2803;47.916;8.074;2023-11-21T01:46:29;10.60;99.90
5560;DHT22;2803;47.916;8.074;2023-11-21T01:48:56;10.70;99.90
5560;DHT22;2803;47.916;8.074;2023-11-21T01:51:23;10.50;99.90
5560;DHT22;2803;47.916;8.074;2023-11-21T01:53:49;10.50;99.90
5560;DHT22;2803;47.916;8.074;2023-11-21T01:56:16;10.60;99.90
5560;DHT22;2803;47.916;8.074;2023-11-21T01:58:43;10.60;99.90
5560;DHT22;2803;47.916;8.074;2023-11-21T02:01:12;10.30;99.90
5560;DHT22;2803;47.916;8.074;2023-11-21T02:03:41;10.40;99.90
5560;DHT22;2803;47.916;8.074;2023-11-21T02:06:07;10.50;99.90
5560;DHT22;2803;47.916;8.074;2023-11-21T02:08:34;10.40;99.90
5560;DHT22;2803;47.916;8.074;2023-11-21T02:11:03;10.60;99.90
5560;DHT22;2803;47.916;8.074;2023-11-21T02:13:29;10.60;99.90
5560;DHT22;2803;47.916;8.074;2023-11-21T02:15:56;10.80;99.90
5560;DHT22;2803;47.916;8.074;2023-11-21T02:18:23;10.80;99.90
5560;DHT22;2803;47.916;8.074;2023-11-21T02:20:51;10.70;99.90
5560;DHT22;2803;47.916;8.074;2023-11-21T02:23:19;10.50;99.90
5560;DHT22;2803;47.916;8.074;2023-11-21T02:25:46;10.60;99.90
5560;DHT22;2803;47.916;8.074;2023-11-21T02:28:14;10.70;99.90
5560;DHT22;2803;47.916;8.074;2023-11-21T02:30:50;10.20;99.90
5560;DHT22;2803;47.916;8.074;2023-11-21T02:33:21;10.30;99.90
5560;DHT22;2803;47.916;8.074;2023-11-21T02:35:47;10.40;99.90
5560;DHT22;2803;47.916;8.074;2023-11-21T02:38:14;10.40;99.90
5560;DHT22;2803;47.916;8.074;2023-11-21T02:40:42;10.50;99.90
5560;DHT22;2803;47.916;8.074;2023-11-21T02:43:09;10.60;99.90
5560;DHT22;2803;47.916;8.074;2023-11-21T02:45:35;10.80;99.90
5560;DHT22;2803;47.916;8.074;2023-11-21T02:48:02;10.80;99.90
5560;DHT22;2803;47.916;8.074;2023-11-21T02:50:29;10.90;99.90
5560;DHT22;2803;47.916;8.074;2023-11-21T02:52:56;11.00;99.90
5560;DHT22;2803;47.916;8.074;2023-11-21T02:55:25;10.90;99.90
5560;DHT22;2803;47.916;8.074;2023-11-21T02:57:53;10.90;99.90
5560;DHT22;2803;47.916;8.074;2023-11-21T03:00:21;10.90;99.90
5560;DHT22;2803;47.916;8.074;2023-11-21T03:02:50;10.90;99.90
5560;DHT22;2803;47.916;8.074;2023-11-21T03:05:16;11.00;99.90
5560;DHT22;2803;47.916;8.074;2023-11-21T03:07:43;11.10;99.90
5560;DHT22;2803;47.916;8.074;2023-11-21T03:10:10;11.10;99.90
5560;DHT22;2803;47.916;8.074;2023-11-21T03:12:37;11.20;99.90
5560;DHT22;2803;47.916;8.074;2023-11-21T03:15:06;11.10;99.90
5560;DHT22;2803;47.916;8.074;2023-11-21T03:17:32;11.10;99.90
5560;DHT22;2803;47.916;8.074;2023-11-21T03:20:00;11.20;99.90
5560;DHT22;2803;47.916;8.074;2023-11-21T03:22:26;11.10;99.90
5560;DHT22;2803;47.916;8.074;2023-11-21T03:24:53;11.00;99.90
5560;DHT22;2803;47.916;8.074;2023-11-21T03:27:19;10.50;99.90
5560;DHT22;2803;47.916;8.074;2023-11-21T03:29:47;10.70;99.90
5560;DHT22;2803;47.916;8.074;2023-11-21T03:32:16;10.80;99.90
5560;DHT22;2803;47.916;8.074;2023-11-21T03:34:54;10.90;99.90
5560;DHT22;2803;47.916;8.074;2023-11-21T03:37:21;11.00;99.90
5560;DHT22;2803;47.916;8.074;2023-11-21T03:39:48;11.00;99.90
5560;DHT22;2803;47.916;8.074;2023-11-21T03:42:15;11.00;99.90
5560;DHT22;2803;47.916;8.074;2023-11-21T03:44:41;11.00;99.90
5560;DHT22;2803;47.916;8.074;2023-11-21T03:47:08;11.00;99.90
5560;DHT22;2803;47.916;8.074;2023-11-21T03:49:36;11.00;99.90
5560;DHT22;2803;47.916;8.074;2023-11-21T03:52:02;11.00;99.90
5560;DHT22;2803;47.916;8.074;2023-11-21T03:54:29;11.20;99.90
5560;DHT22;2803;47.916;8.074;2023-11-21T03:56:56;11.20;99.90
5560;DHT22;2803;47.916;8.074;2023-11-21T03:59:22;11.20;99.90
5560;DHT22;2803;47.916;8.074;2023-11-21T04:01:49;11.10;99.90
5560;DHT22;2803;47.916;8.074;2023-11-21T04:04:16;11.20;99.90
5560;DHT22;2803;47.916;8.074;2023-11-21T04:06:44;11.20;99.90
5560;DHT22;2803;47.916;8.074;2023-11-21T04:09:10;11.10;99.90
5560;DHT22;2803;47.916;8.074;2023-11-21T04:11:38;11.20;99.90
5560;DHT22;2803;47.916;8.074;2023-11-21T04:14:04;11.20;99.90
5560;DHT22;2803;47.916;8.074;2023-11-21T04:16:31;11.20;99.90
5560;DHT22;2803;47.916;8.074;2023-11-21T04:18:59;11.10;99.90
5560;DHT22;2803;47.916;8.074;2023-11-21T04:21:25;11.10;99.90
5560;DHT22;2803;47.916;8.074;2023-11-21T04:23:54;11.10;99.90
5560;DHT22;2803;47.916;8.074;2023-11-21T04:26:20;11.20;99.90
5560;DHT22;2803;47.916;8.074;2023-11-21T04:28:47;11.10;99.90
5560;DHT22;2803;47.916;8.074;2023-11-21T04:31:13;11.10;99.90
5560;DHT22;2803;47.916;8.074;2023-11-21T04:33:40;11.20;99.90
5560;DHT22;2803;47.916;8.074;2023-11-21T04:36:07;11.20;99.90
5560;DHT22;2803;47.916;8.074;2023-11-21T04:38:33;11.10;99.90
5560;DHT22;2803;47.916;8.074;2023-11-21T04:41:01;10.70;99.90
5560;DHT22;2803;47.916;8.074;2023-11-21T04:43:28;10.70;99.90
5560;DHT22;2803;47.916;8.074;2023-11-21T04:45:55;10.70;99.90
5560;DHT22;2803;47.916;8.074;2023-11-21T04:48:22;10.50;99.90
5560;DHT22;2803;47.916;8.074;2023-11-21T04:50:49;10.60;99.90
5560;DHT22;2803;47.916;8.074;2023-11-21T04:53:16;10.80;99.90
5560;DHT22;2803;47.916;8.074;2023-11-21T04:55:42;10.80;99.90
5560;DHT22;2803;47.916;8.074;2023-11-21T04:58:10;10.80;99.90
5560;DHT22;2803;47.916;8.074;2023-11-21T05:00:37;10.90;99.90
5560;DHT22;2803;47.916;8.074;2023-11-21T05:03:04;11.10;99.90
5560;DHT22;2803;47.916;8.074;2023-11-21T05:05:32;10.90;99.90
5560;DHT22;2803;47.916;8.074;2023-11-21T05:07:59;11.00;99.90
5560;DHT22;2803;47.916;8.074;2023-11-21T05:10:26;11.00;99.90
5560;DHT22;2803;47.916;8.074;2023-11-21T05:12:53;10.90;99.90
5560;DHT22;2803;47.916;8.074;2023-11-21T05:15:21;10.90;99.90
5560;DHT22;2803;47.916;8.074;2023-11-21T05:17:48;10.70;99.90
5560;DHT22;2803;47.916;8.074;2023-11-21T05:20:17;10.80;99.90
5560;DHT22;2803;47.916;8.074;2023-11-21T05:22:46;10.90;99.90
5560;DHT22;2803;47.916;8.074;2023-11-21T05:25:13;11.00;99.90
5560;DHT22;2803;47.916;8.074;2023-11-21T05:27:40;11.10;99.90
5560;DHT22;2803;47.916;8.074;2023-11-21T05:30:07;11.00;99.90
5560;DHT22;2803;47.916;8.074;2023-11-21T05:32:38;11.00;99.90
5560;DHT22;2803;47.916;8.074;2023-11-21T05:35:05;11.00;99.90
5560;DHT22;2803;47.916;8.074;2023-11-21T05:37:34;11.10;99.90
5560;DHT22;2803;47.916;8.074;2023-11-21T05:40:04;11.10;99.90
5560;DHT22;2803;47.916;8.074;2023-11-21T05:42:31;11.00;99.90
5560;DHT22;2803;47.916;8.074;2023-11-21T05:44:58;11.10;99.90
5560;DHT22;2803;47.916;8.074;2023-11-21T05:47:36;11.20;99.90
5560;DHT22;2803;47.916;8.074;2023-11-21T05:50:04;11.20;99.90
5560;DHT22;2803;47.916;8.074;2023-11-21T05:52:31;11.30;99.90
5560;DHT22;2803;47.916;8.074;2023-11-21T05:54:58;11.40;99.90
5560;DHT22;2803;47.916;8.074;2023-11-21T05:57:25;11.30;99.90
5560;DHT22;2803;47.916;8.074;2023-11-21T05:59:52;11.20;99.90
5560;DHT22;2803;47.916;8.074;2023-11-21T06:02:18;11.10;99.90
5560;DHT22;2803;47.916;8.074;2023-11-21T06:04:45;11.20;99.90
5560;DHT22;2803;47.916;8.074;2023-11-21T06:07:13;11.20;99.90
5560;DHT22;2803;47.916;8.074;2023-11-21T06:09:40;11.30;99.90
5560;DHT22;2803;47.916;8.074;2023-11-21T06:12:07;11.20;99.90
5560;DHT22;2803;47.916;8.074;2023-11-21T06:14:33;11.00;99.90
5560;DHT22;2803;47.916;8.074;2023-11-21T06:17:00;11.10;99.90
5560;DHT22;2803;47.916;8.074;2023-11-21T06:19:27;10.50;99.90
5560;DHT22;2803;47.916;8.074;2023-11-21T06:21:54;10.50;99.90
5560;DHT22;2803;47.916;8.074;2023-11-21T06:24:22;10.40;99.90
5560;DHT22;2803;47.916;8.074;2023-11-21T06:26:48;9.80;99.90
5560;DHT22;2803;47.916;8.074;2023-11-21T06:29:15;9.70;99.90
5560;DHT22;2803;47.916;8.074;2023-11-21T06:31:41;9.40;99.90
5560;DHT22;2803;47.916;8.074;2023-11-21T06:34:09;9.10;99.90
5560;DHT22;2803;47.916;8.074;2023-11-21T06:36:35;8.80;99.90
5560;DHT22;2803;47.916;8.074;2023-11-21T06:39:02;8.50;99.90
5560;DHT22;2803;47.916;8.074;2023-11-21T06:41:33;8.40;99.90
5560;DHT22;2803;47.916;8.074;2023-11-21T06:44:00;8.50;99.90
5560;DHT22;2803;47.916;8.074;2023-11-21T06:46:26;8.50;99.90
5560;DHT22;2803;47.916;8.074;2023-11-21T06:48:53;8.50;99.90
5560;DHT22;2803;47.916;8.074;2023-11-21T06:51:20;8.50;99.90
5560;DHT22;2803;47.916;8.074;2023-11-21T06:53:46;8.60;99.90
5560;DHT22;2803;47.916;8.074;2023-11-21T06:56:16;8.40;99.90
5560;DHT22;2803;47.916;8.074;2023-11-21T06:58:45;8.50;99.90
5560;DHT22;2803;47.916;8.074;2023-11-21T07:01:12;8.80;99.90
5560;DHT22;2803;47.916;8.074;2023-11-21T07:03:38;8.90;99.90
5560;DHT22;2803;47.916;8.074;2023-11-21T07:06:06;8.60;99.90
5560;DHT22;2803;47.916;8.074;2023-11-21T07:08:33;8.60;99.90
5560;DHT22;2803;47.916;8.074;2023-11-21T07:11:00;8.90;99.90
5560;DHT22;2803;47.916;8.074;2023-11-21T07:13:28;9.10;99.90
5560;DHT22;2803;47.916;8.074;2023-11-21T07:15:56;9.30;99.90
5560;DHT22;2803;47.916;8.074;2023-11-21T07:18:23;8.70;99.90
5560;DHT22;2803;47.916;8.074;2023-11-21T07:20:49;8.90;99.90
5560;DHT22;2803;47.916;8.074;2023-11-21T07:23:17;9.10;99.90
5560;DHT22;2803;47.916;8.074;2023-11-21T07:25:43;9.00;99.90
5560;DHT22;2803;47.916;8.074;2023-11-21T07:28:10;9.00;99.90
5560;DHT22;2803;47.916;8.074;2023-11-21T07:30:37;9.40;99.90
5560;DHT22;2803;47.916;8.074;2023-11-21T07:33:05;9.70;99.90
5560;DHT22;2803;47.916;8.074;2023-11-21T07:35:32;9.80;99.90
5560;DHT22;2803;47.916;8.074;2023-11-21T07:37:59;9.90;99.90
5560;DHT22;2803;47.916;8.074;2023-11-21T07:40:26;10.20;99.90
5560;DHT22;2803;47.916;8.074;2023-11-21T07:42:53;10.30;99.90
5560;DHT22;2803;47.916;8.074;2023-11-21T07:45:22;10.40;99.90
5560;DHT22;2803;47.916;8.074;2023-11-21T07:47:49;10.60;99.90
5560;DHT22;2803;47.916;8.074;2023-11-21T07:50:17;10.60;99.90
5560;DHT22;2803;47.916;8.074;2023-11-21T07:52:44;10.30;99.90
5560;DHT22;2803;47.916;8.074;2023-11-21T07:55:10;10.50;99.90
5560;DHT22;2803;47.916;8.074;2023-11-21T07:57:37;10.50;99.90
5560;DHT22;2803;47.916;8.074;2023-11-21T08:00:05;10.60;99.90
5560;DHT22;2803;47.916;8.074;2023-11-21T08:02:34;10.70;99.90
5560;DHT22;2803;47.916;8.074;2023-11-21T08:05:01;10.80;99.90
5560;DHT22;2803;47.916;8.074;2023-11-21T08:07:29;10.70;99.90
5560;DHT22;2803;47.916;8.074;2023-11-21T08:09:57;10.40;99.90
5560;DHT22;2803;47.916;8.074;2023-11-21T08:12:24;10.50;99.90
5560;DHT22;2803;47.916;8.074;2023-11-21T08:14:53;10.70;99.90
5560;DHT22;2803;47.916;8.074;2023-11-21T08:17:19;10.80;99.90
5560;DHT22;2803;47.916;8.074;2023-11-21T08:19:46;10.90;99.90
5560;DHT22;2803;47.916;8.074;2023-11-21T08:22:14;11.00;99.90
5560;DHT22;2803;47.916;8.074;2023-11-21T08:24:43;10.50;99.90
5560;DHT22;2803;47.916;8.074;2023-11-21T08:27:09;10.30;99.90
5560;DHT22;2803;47.916;8.074;2023-11-21T08:29:36;10.00;99.90
5560;DHT22;2803;47.916;8.074;2023-11-21T08:32:04;10.10;99.90
5560;DHT22;2803;47.916;8.074;2023-11-21T08:34:30;10.50;99.90
5560;DHT22;2803;47.916;8.074;2023-11-21T08:36:57;10.40;99.90
5560;DHT22;2803;47.916;8.074;2023-11-21T08:39:24;10.70;99.90
5560;DHT22;2803;47.916;8.074;2023-11-21T08:41:53;10.60;99.90
5560;DHT22;2803;47.916;8.074;2023-11-21T08:44:20;10.50;99.90
5560;DHT22;2803;47.916;8.074;2023-11-21T08:46:46;10.40;99.90
5560;DHT22;2803;47.916;8.074;2023-11-21T08:49:13;10.20;99.90
5560;DHT22;2803;47.916;8.074;2023-11-21T08:51:40;10.20;99.90
5560;DHT22;2803;47.916;8.074;2023-11-21T08:54:07;9.80;99.90
5560;DHT22;2803;47.916;8.074;2023-11-21T08:56:34;9.70;99.90
5560;DHT22;2803;47.916;8.074;2023-11-21T08:59:02;10.00;99.90
5560;DHT22;2803;47.916;8.074;2023-11-21T09:01:29;10.20;99.90
5560;DHT22;2803;47.916;8.074;2023-11-21T09:03:56;10.20;99.90
5560;DHT22;2803;47.916;8.074;2023-11-21T09:06:23;10.20;99.90
5560;DHT22;2803;47.916;8.074;2023-11-21T09:08:50;10.00;99.90
5560;DHT22;2803;47.916;8.074;2023-11-21T09:11:17;9.90;99.90
5560;DHT22;2803;47.916;8.074;2023-11-21T09:13:44;10.30;99.90
5560;DHT22;2803;47.916;8.074;2023-11-21T09:16:13;10.00;99.90
5560;DHT22;2803;47.916;8.074;2023-11-21T09:18:40;10.00;99.90
5560;DHT22;2803;47.916;8.074;2023-11-21T09:21:07;9.90;99.90
5560;DHT22;2803;47.916;8.074;2023-11-21T09:23:34;9.90;99.90
5560;DHT22;2803;47.916;8.074;2023-11-21T09:26:01;10.20;99.90
5560;DHT22;2803;47.916;8.074;2023-11-21T09:28:27;10.30;99.90
5560;DHT22;2803;47.916;8.074;2023-11-21T09:30:54;10.20;99.90
5560;DHT22;2803;47.916;8.074;2023-11-21T09:33:22;10.40;99.90
5560;DHT22;2803;47.916;8.074;2023-11-21T09:35:50;10.50;99.90
5560;DHT22;2803;47.916;8.074;2023-11-21T09:38:17;10.70;99.90
5560;DHT22;2803;47.916;8.074;2023-11-21T09:40:44;10.50;99.90
5560;DHT22;2803;47.916;8.074;2023-11-21T09:43:16;10.50;99.90
5560;DHT22;2803;47.916;8.074;2023-11-21T09:45:45;10.00;99.90
5560;DHT22;2803;47.916;8.074;2023-11-21T09:48:13;10.10;99.90
5560;DHT22;2803;47.916;8.074;2023-11-21T09:50:41;10.40;99.90
5560;DHT22;2803;47.916;8.074;2023-11-21T09:53:13;10.30;99.90
5560;DHT22;2803;47.916;8.074;2023-11-21T09:55:44;10.40;99.90
5560;DHT22;2803;47.916;8.074;2023-11-21T09:58:12;9.80;99.90
5560;DHT22;2803;47.916;8.074;2023-11-21T10:00:40;9.30;99.90
5560;DHT22;2803;47.916;8.074;2023-11-21T10:03:08;9.60;99.90
5560;DHT22;2803;47.916;8.074;2023-11-21T10:05:35;9.20;99.90
5560;DHT22;2803;47.916;8.074;2023-11-21T10:08:06;9.30;99.90
5560;DHT22;2803;47.916;8.074;2023-11-21T10:10:33;9.40;99.90
5560;DHT22;2803;47.916;8.074;2023-11-21T10:13:03;9.50;99.90
5560;DHT22;2803;47.916;8.074;2023-11-21T10:15:33;9.70;99.90
5560;DHT22;2803;47.916;8.074;2023-11-21T10:18:02;9.60;99.90
5560;DHT22;2803;47.916;8.074;2023-11-21T10:20:30;9.70;99.90
5560;DHT22;2803;47.916;8.074;2023-11-21T10:22:59;9.60;99.90
5560;DHT22;2803;47.916;8.074;2023-11-21T10:25:28;9.60;99.90
5560;DHT22;2803;47.916;8.074;2023-11-21T10:27:57;9.60;99.90
5560;DHT22;2803;47.916;8.074;2023-11-21T10:30:28;9.90;99.90
5560;DHT22;2803;47.916;8.074;2023-11-21T10:32:58;9.90;99.90
5560;DHT22;2803;47.916;8.074;2023-11-21T10:35:38;9.60;99.90
5560;DHT22;2803;47.916;8.074;2023-11-21T10:38:05;9.90;99.90
5560;DHT22;2803;47.916;8.074;2023-11-21T10:40:37;10.10;99.90
5560;DHT22;2803;47.916;8.074;2023-11-21T10:43:06;10.30;99.90
5560;DHT22;2803;47.916;8.074;2023-11-21T10:45:34;10.40;99.90
5560;DHT22;2803;47.916;8.074;2023-11-21T10:48:05;9.90;99.90
5560;DHT22;2803;47.916;8.074;2023-11-21T10:50:32;9.70;99.90
5560;DHT22;2803;47.916;8.074;2023-11-21T10:53:01;10.30;99.90
5560;DHT22;2803;47.916;8.074;2023-11-21T10:55:29;9.90;99.90
5560;DHT22;2803;47.916;8.074;2023-11-21T10:57:59;9.90;99.90
5560;DHT22;2803;47.916;8.074;2023-11-21T11:00:27;9.70;99.90
5560;DHT22;2803;47.916;8.074;2023-11-21T11:02:55;10.00;99.90
5560;DHT22;2803;47.916;8.074;2023-11-21T11:05:23;9.70;99.90
5560;DHT22;2803;47.916;8.074;2023-11-21T11:07:55;10.10;99.90
5560;DHT22;2803;47.916;8.074;2023-11-21T11:10:25;10.00;99.90
5560;DHT22;2803;47.916;8.074;2023-11-21T11:12:53;10.00;99.90
5560;DHT22;2803;47.916;8.074;2023-11-21T11:15:22;9.90;99.90
5560;DHT22;2803;47.916;8.074;2023-11-21T11:17:49;9.90;99.90
5560;DHT22;2803;47.916;8.074;2023-11-21T11:20:17;10.10;99.90
5560;DHT22;2803;47.916;8.074;2023-11-21T11:23:04;9.70;99.90
5560;DHT22;2803;47.916;8.074;2023-11-21T11:25:44;9.50;99.90
5560;DHT22;2803;47.916;8.074;2023-11-21T11:28:16;9.50;99.90
5560;DHT22;2803;47.916;8.074;2023-11-21T11:30:54;9.50;99.90
5560;DHT22;2803;47.916;8.074;2023-11-21T11:33:30;9.30;99.90
5560;DHT22;2803;47.916;8.074;2023-11-21T11:36:04;9.20;99.90
5560;DHT22;2803;47.916;8.074;2023-11-21T11:38:34;9.50;99.90
5560;DHT22;2803;47.916;8.074;2023-11-21T11:41:02;10.00;99.90
5560;DHT22;2803;47.916;8.074;2023-11-21T11:43:29;10.10;99.90
5560;DHT22;2803;47.916;8.074;2023-11-21T11:46:01;10.30;99.90
5560;DHT22;2803;47.916;8.074;2023-11-21T11:48:29;10.20;99.90
5560;DHT22;2803;47.916;8.074;2023-11-21T11:51:05;9.90;99.90
5560;DHT22;2803;47.916;8.074;2023-11-21T11:53:37;9.60;99.90
5560;DHT22;2803;47.916;8.074;2023-11-21T11:56:21;9.70;99.90
5560;DHT22;2803;47.916;8.074;2023-11-21T11:58:49;9.70;99.90
5560;DHT22;2803;47.916;8.074;2023-11-21T12:01:18;9.80;99.90
5560;DHT22;2803;47.916;8.074;2023-11-21T12:03:47;10.10;99.90
5560;DHT22;2803;47.916;8.074;2023-11-21T12:06:35;10.20;99.90
5560;DHT22;2803;47.916;8.074;2023-11-21T12:09:02;10.20;99.90
5560;DHT22;2803;47.916;8.074;2023-11-21T12:11:31;10.50;99.90
5560;DHT22;2803;47.916;8.074;2023-11-21T12:13:58;10.60;99.90
5560;DHT22;2803;47.916;8.074;2023-11-21T12:16:25;10.60;99.90
5560;DHT22;2803;47.916;8.074;2023-11-21T12:18:52;10.40;99.90
5560;DHT22;2803;47.916;8.074;2023-11-21T12:21:19;10.60;99.90
5560;DHT22;2803;47.916;8.074;2023-11-21T12:23:47;10.10;99.90
5560;DHT22;2803;47.916;8.074;2023-11-21T12:26:14;9.90;99.90
5560;DHT22;2803;47.916;8.074;2023-11-21T12:28:41;10.00;99.90
5560;DHT22;2803;47.916;8.074;2023-11-21T12:31:08;9.90;99.90
5560;DHT22;2803;47.916;8.074;2023-11-21T12:33:36;10.20;99.90
5560;DHT22;2803;47.916;8.074;2023-11-21T12:36:04;10.30;99.90
5560;DHT22;2803;47.916;8.074;2023-11-21T12:38:33;10.50;99.90
5560;DHT22;2803;47.916;8.074;2023-11-21T12:41:02;10.10;99.90
5560;DHT22;2803;47.916;8.074;2023-11-21T12:43:30;9.50;99.90
5560;DHT22;2803;47.916;8.074;2023-11-21T12:46:04;9.50;99.90
5560;DHT22;2803;47.916;8.074;2023-11-21T12:48:32;9.60;99.90
5560;DHT22;2803;47.916;8.074;2023-11-21T12:50:58;9.80;99.90
5560;DHT22;2803;47.916;8.074;2023-11-21T12:53:25;9.90;99.90
5560;DHT22;2803;47.916;8.074;2023-11-21T12:55:58;9.90;99.90
5560;DHT22;2803;47.916;8.074;2023-11-21T12:58:27;9.80;99.90
5560;DHT22;2803;47.916;8.074;2023-11-21T13:00:56;10.00;99.90
5560;DHT22;2803;47.916;8.074;2023-11-21T13:03:25;10.10;99.90
5560;DHT22;2803;47.916;8.074;2023-11-21T13:05:53;10.20;99.90
5560;DHT22;2803;47.916;8.074;2023-11-21T13:08:24;10.50;99.90
5560;DHT22;2803;47.916;8.074;2023-11-21T13:10:52;10.40;99.90
5560;DHT22;2803;47.916;8.074;2023-11-21T13:13:21;10.40;99.90
5560;DHT22;2803;47.916;8.074;2023-11-21T13:15:50;10.50;99.90
5560;DHT22;2803;47.916;8.074;2023-11-21T13:18:17;10.70;99.90
5560;DHT22;2803;47.916;8.074;2023-11-21T13:20:44;10.70;99.90
5560;DHT22;2803;47.916;8.074;2023-11-21T13:23:12;10.50;99.90
5560;DHT22;2803;47.916;8.074;2023-11-21T13:25:41;10.40;99.90
5560;DHT22;2803;47.916;8.074;2023-11-21T13:28:11;10.30;99.90
5560;DHT22;2803;47.916;8.074;2023-11-21T13:30:38;10.50;99.90
5560;DHT22;2803;47.916;8.074;2023-11-21T13:33:07;10.60;99.90
5560;DHT22;2803;47.916;8.074;2023-11-21T13:35:36;10.70;99.90
5560;DHT22;2803;47.916;8.074;2023-11-21T13:38:08;10.60;99.90
5560;DHT22;2803;47.916;8.074;2023-11-21T13:40:36;10.50;99.90
5560;DHT22;2803;47.916;8.074;2023-11-21T13:43:08;10.90;99.90
5560;DHT22;2803;47.916;8.074;2023-11-21T13:45:35;11.00;99.90
5560;DHT22;2803;47.916;8.074;2023-11-21T13:48:02;10.90;99.90
5560;DHT22;2803;47.916;8.074;2023-11-21T13:50:33;10.30;99.90
5560;DHT22;2803;47.916;8.074;2023-11-21T13:53:01;10.40;99.90
5560;DHT22;2803;47.916;8.074;2023-11-21T13:55:41;10.50;99.90
5560;DHT22;2803;47.916;8.074;2023-11-21T13:58:08;11.00;99.90
5560;DHT22;2803;47.916;8.074;2023-11-21T14:00:38;11.30;99.90
5560;DHT22;2803;47.916;8.074;2023-11-21T14:03:10;11.40;99.90
5560;DHT22;2803;47.916;8.074;2023-11-21T14:05:46;11.20;99.90
5560;DHT22;2803;47.916;8.074;2023-11-21T14:08:17;11.10;99.90
5560;DHT22;2803;47.916;8.074;2023-11-21T14:10:45;10.80;99.90
5560;DHT22;2803;47.916;8.074;2023-11-21T14:13:16;10.40;99.90
5560;DHT22;2803;47.916;8.074;2023-11-21T14:15:43;10.30;99.90
5560;DHT22;2803;47.916;8.074;2023-11-21T14:18:12;10.40;99.90
5560;DHT22;2803;47.916;8.074;2023-11-21T14:20:42;10.60;99.90
5560;DHT22;2803;47.916;8.074;2023-11-21T14:23:11;10.40;99.90
5560;DHT22;2803;47.916;8.074;2023-11-21T14:25:38;10.50;99.90
5560;DHT22;2803;47.916;8.074;2023-11-21T14:28:06;10.30;99.90
5560;DHT22;2803;47.916;8.074;2023-11-21T14:30:33;10.30;99.90
5560;DHT22;2803;47.916;8.074;2023-11-21T14:33:01;10.50;99.90
5560;DHT22;2803;47.916;8.074;2023-11-21T14:35:28;10.70;99.90
5560;DHT22;2803;47.916;8.074;2023-11-21T14:37:58;10.90;99.90
5560;DHT22;2803;47.916;8.074;2023-11-21T14:40:27;10.90;99.90
5560;DHT22;2803;47.916;8.074;2023-11-21T14:42:58;11.20;99.90
5560;DHT22;2803;47.916;8.074;2023-11-21T14:45:25;11.30;99.90
5560;DHT22;2803;47.916;8.074;2023-11-21T14:47:52;11.00;99.90
5560;DHT22;2803;47.916;8.074;2023-11-21T14:50:28;11.20;99.90
5560;DHT22;2803;47.916;8.074;2023-11-21T14:53:08;11.30;99.90
5560;DHT22;2803;47.916;8.074;2023-11-21T14:55:39;11.10;99.90
5560;DHT22;2803;47.916;8.074;2023-11-21T14:58:20;11.20;99.90
5560;DHT22;2803;47.916;8.074;2023-11-21T15:00:53;11.40;99.90
5560;DHT22;2803;47.916;8.074;2023-11-21T15:03:23;11.40;99.90
5560;DHT22;2803;47.916;8.074;2023-11-21T15:06:09;11.50;99.90
5560;DHT22;2803;47.916;8.074;2023-11-21T15:08:50;11.50;99.90
5560;DHT22;2803;47.916;8.074;2023-11-21T15:11:24;11.60;99.90
5560;DHT22;2803;47.916;8.074;2023-11-21T15:13:56;11.20;99.90
5560;DHT22;2803;47.916;8.074;2023-11-21T15:16:23;11.30;99.90
5560;DHT22;2803;47.916;8.074;2023-11-21T15:18:51;11.40;99.90
5560;DHT22;2803;47.916;8.074;2023-11-21T15:21:18;11.40;99.90
5560;DHT22;2803;47.916;8.074;2023-11-21T15:23:46;11.40;99.90
5560;DHT22;2803;47.916;8.074;2023-11-21T15:26:13;11.50;99.90
5560;DHT22;2803;47.916;8.074;2023-11-21T15:28:41;11.60;99.90
5560;DHT22;2803;47.916;8.074;2023-11-21T15:31:08;11.60;99.90
5560;DHT22;2803;47.916;8.074;2023-11-21T15:33:34;11.70;99.90
5560;DHT22;2803;47.916;8.074;2023-11-21T15:36:03;11.50;99.90
5560;DHT22;2803;47.916;8.074;2023-11-21T15:38:29;11.40;99.90
5560;DHT22;2803;47.916;8.074;2023-11-21T15:40:56;11.20;99.90
5560;DHT22;2803;47.916;8.074;2023-11-21T15:43:24;11.20;99.90
5560;DHT22;2803;47.916;8.074;2023-11-21T15:45:53;11.20;99.90
5560;DHT22;2803;47.916;8.074;2023-11-21T15:48:20;11.00;99.90
5560;DHT22;2803;47.916;8.074;2023-11-21T15:50:47;10.90;99.90
5560;DHT22;2803;47.916;8.074;2023-11-21T15:53:16;11.10;99.90
5560;DHT22;2803;47.916;8.074;2023-11-21T15:55:42;11.20;99.90
5560;DHT22;2803;47.916;8.074;2023-11-21T15:58:09;11.30;99.90
5560;DHT22;2803;47.916;8.074;2023-11-21T16:00:36;11.30;99.90
5560;DHT22;2803;47.916;8.074;2023-11-21T16:03:04;11.40;99.90
5560;DHT22;2803;47.916;8.074;2023-11-21T16:05:30;11.50;99.90
5560;DHT22;2803;47.916;8.074;2023-11-21T16:07:57;11.50;99.90
5560;DHT22;2803;47.916;8.074;2023-11-21T16:10:24;11.20;99.90